createdAt,value
2018-02-18T00:01:59.166Z,32.60
2018-02-18T00:04:27.443Z,47.20
2018-02-18T00:06:55.706Z,31.80
2018-02-18T00:09:23.971Z,42.17
2018-02-18T00:11:52.240Z,35.67
2018-02-18T00:14:23.870Z,42.27
2018-02-18T00:16:52.143Z,33.70
2018-02-18T00:19:20.405Z,41.20
2018-02-18T00:21:48.686Z,45.53
2018-02-18T00:24:16.942Z,30.85
2018-02-18T00:26:45.251Z,33.72
2018-02-18T00:29:13.500Z,36.63
2018-02-18T00:31:41.780Z,32.43
2018-02-18T00:34:10.037Z,35.38
2018-02-18T00:36:39.077Z,33.15
2018-02-18T00:39:07.337Z,45.85
2018-02-18T00:41:35.615Z,43.85
2018-02-18T00:44:03.879Z,40.65
2018-02-18T00:46:32.924Z,33.55
2018-02-18T00:49:01.195Z,37.22
2018-02-18T00:51:29.494Z,32.92
2018-02-18T00:53:57.750Z,30.37
2018-02-18T00:56:26.061Z,38.40
2018-02-18T00:58:54.315Z,35.23
2018-02-18T01:01:22.584Z,39.50
2018-02-18T01:03:50.840Z,38.13
2018-02-18T01:06:19.107Z,37.23
2018-02-18T01:08:47.466Z,33.28
2018-02-18T01:11:15.734Z,31.80
2018-02-18T01:13:44.018Z,38.85
2018-02-18T01:16:12.293Z,32.78
2018-02-18T01:18:40.583Z,37.30
2018-02-18T01:21:08.854Z,40.20
2018-02-18T01:23:37.113Z,33.75
2018-02-18T01:26:05.382Z,33.38
2018-02-18T01:28:34.415Z,43.70
2018-02-18T01:31:02.695Z,37.75
2018-02-18T01:33:30.975Z,37.45
2018-02-18T01:35:59.277Z,39.35
2018-02-18T01:38:27.551Z,31.35
2018-02-18T01:40:55.850Z,39.53
2018-02-18T01:43:24.130Z,40.67
2018-02-18T01:45:52.398Z,38.72
2018-02-18T01:48:20.667Z,36.08
2018-02-18T01:50:48.923Z,36.92
2018-02-18T01:53:17.196Z,28.95
2018-02-18T01:55:46.250Z,35.50
2018-02-18T01:58:14.546Z,32.90
2018-02-18T02:00:42.814Z,36.08
2018-02-18T02:03:11.070Z,52.25
2018-02-18T02:05:39.328Z,30.73
2018-02-18T02:08:08.568Z,33.85
2018-02-18T02:10:36.821Z,37.10
2018-02-18T02:13:05.100Z,46.22
2018-02-18T02:15:33.381Z,39.30
2018-02-18T02:18:01.663Z,40.95
2018-02-18T02:20:30.715Z,38.72
2018-02-18T02:22:59.064Z,40.75
2018-02-18T02:25:27.342Z,42.67
2018-02-18T02:27:55.611Z,40.60
2018-02-18T02:30:23.867Z,37.63
2018-02-18T02:32:52.905Z,38.42
2018-02-18T02:35:21.684Z,43.75
2018-02-18T02:37:49.956Z,41.00
2018-02-18T02:40:18.992Z,39.92
2018-02-18T02:42:47.379Z,38.47
2018-02-18T02:45:15.631Z,50.00
2018-02-18T02:47:43.902Z,36.97
2018-02-18T02:50:12.218Z,41.42
2018-02-18T02:52:40.597Z,39.70
2018-02-18T02:55:08.875Z,36.35
2018-02-18T02:57:37.153Z,45.75
2018-02-18T03:00:05.488Z,41.45
2018-02-18T03:02:33.820Z,41.83
2018-02-18T03:05:02.083Z,37.45
2018-02-18T03:07:30.358Z,46.33
2018-02-18T03:09:58.620Z,38.75
2018-02-18T03:12:27.751Z,39.60
2018-02-18T03:14:56.007Z,53.85
2018-02-18T03:17:24.273Z,45.50
2018-02-18T03:19:53.306Z,45.83
2018-02-18T03:22:21.602Z,38.88
2018-02-18T03:24:49.859Z,43.08
2018-02-18T03:27:18.185Z,41.25
2018-02-18T03:29:46.441Z,38.80
2018-02-18T03:32:14.705Z,48.80
2018-02-18T03:34:43.017Z,40.35
2018-02-18T03:37:11.287Z,38.47
2018-02-18T03:39:39.582Z,43.08
2018-02-18T03:42:07.855Z,46.92
2018-02-18T03:44:36.119Z,48.63
2018-02-18T03:47:04.391Z,40.55
2018-02-18T03:49:32.651Z,46.47
2018-02-18T03:52:01.716Z,39.75
2018-02-18T03:54:30.010Z,39.55
2018-02-18T03:56:58.383Z,50.38
2018-02-18T03:59:26.659Z,43.75
2018-02-18T04:01:54.950Z,40.05
2018-02-18T04:04:23.220Z,38.65
2018-02-18T04:06:51.502Z,40.45
2018-02-18T04:09:19.767Z,40.20
2018-02-18T04:11:48.063Z,40.78
2018-02-18T04:14:16.350Z,43.15
2018-02-18T04:16:44.643Z,41.40
2018-02-18T04:19:12.925Z,46.00
2018-02-18T04:21:41.829Z,43.42
2018-02-18T04:24:10.913Z,48.38
2018-02-18T04:26:39.195Z,37.30
2018-02-18T04:29:07.500Z,49.92
2018-02-18T04:31:35.861Z,49.85
2018-02-18T04:34:04.164Z,37.90
2018-02-18T04:36:32.555Z,43.42
2018-02-18T04:39:00.849Z,41.10
2018-02-18T04:41:29.901Z,46.67
2018-02-18T04:43:58.174Z,42.60
2018-02-18T04:46:26.463Z,49.75
2018-02-18T04:48:54.754Z,45.78
2018-02-18T04:51:23.046Z,45.63
2018-02-18T04:53:51.332Z,45.55
2018-02-18T04:56:20.075Z,44.60
2018-02-18T04:58:48.370Z,56.65
2018-02-18T05:01:16.639Z,39.85
2018-02-18T05:03:44.919Z,39.10
2018-02-18T05:06:13.208Z,47.17
2018-02-18T05:08:41.520Z,47.10
2018-02-18T05:11:09.777Z,47.72
2018-02-18T05:13:38.048Z,49.67
2018-02-18T05:16:06.343Z,43.63
2018-02-18T05:18:34.609Z,49.53
2018-02-18T05:21:02.910Z,41.72
2018-02-18T05:23:31.200Z,43.65
2018-02-18T05:25:59.483Z,49.92
2018-02-18T05:28:27.845Z,45.85
2018-02-18T05:30:56.104Z,45.00
2018-02-18T05:33:24.379Z,51.60
2018-02-18T05:35:52.640Z,45.83
2018-02-18T05:38:21.683Z,51.47
2018-02-18T05:40:49.945Z,44.45
2018-02-18T05:43:19.878Z,44.53
2018-02-18T05:45:48.136Z,54.22
2018-02-18T05:48:17.193Z,47.95
2018-02-18T05:50:46.223Z,49.25
2018-02-18T05:53:15.254Z,49.28
2018-02-18T05:55:43.542Z,45.08
2018-02-18T05:58:11.790Z,50.95
2018-02-18T06:00:40.825Z,39.97
2018-02-18T06:03:09.096Z,44.30
2018-02-18T06:05:37.355Z,58.10
2018-02-18T06:08:05.633Z,50.67
2018-02-18T06:10:34.666Z,47.30
2018-02-18T06:13:02.971Z,53.55
2018-02-18T06:15:31.256Z,50.10
2018-02-18T06:17:59.623Z,42.92
2018-02-18T06:20:27.882Z,51.42
2018-02-18T06:22:56.163Z,58.25
2018-02-18T06:25:24.417Z,52.58
2018-02-18T06:27:53.462Z,52.70
2018-02-18T06:30:21.754Z,48.83
2018-02-18T06:32:50.049Z,48.20
2018-02-18T06:35:18.303Z,47.03
2018-02-18T06:37:46.577Z,47.62
2018-02-18T06:40:14.826Z,46.72
2018-02-18T06:42:43.868Z,47.55
2018-02-18T06:45:12.123Z,46.25
2018-02-18T06:47:40.449Z,51.15
2018-02-18T06:50:08.814Z,49.85
2018-02-18T06:52:37.410Z,54.95
2018-02-18T06:55:05.705Z,48.13
2018-02-18T06:57:34.074Z,57.78
2018-02-18T07:00:02.342Z,46.72
2018-02-18T07:02:30.778Z,46.30
2018-02-18T07:04:59.460Z,45.88
2018-02-18T07:07:27.887Z,46.78
2018-02-18T07:09:56.161Z,44.92
2018-02-18T07:12:24.505Z,49.35
2018-02-18T07:14:52.758Z,47.30
2018-02-18T07:17:21.030Z,52.42
2018-02-18T07:19:49.343Z,70.18
2018-02-18T07:22:17.574Z,49.15
2018-02-18T07:24:45.859Z,45.92
2018-02-18T07:27:14.122Z,51.72
2018-02-18T07:29:42.392Z,43.67
2018-02-18T07:32:11.443Z,47.00
2018-02-18T07:34:39.701Z,38.10
2018-02-18T07:37:07.954Z,39.60
2018-02-18T07:39:37.008Z,41.53
2018-02-18T07:42:05.261Z,41.57
2018-02-18T07:44:33.545Z,38.93
2018-02-18T07:47:01.799Z,37.80
2018-02-18T07:49:30.835Z,40.90
2018-02-18T07:51:59.081Z,37.93
2018-02-18T07:54:27.367Z,39.00
2018-02-18T07:56:55.678Z,37.93
2018-02-18T07:59:23.950Z,43.17
2018-02-18T08:01:52.221Z,32.60
2018-02-18T08:04:20.495Z,34.93
2018-02-18T08:06:48.790Z,34.70
2018-02-18T08:09:17.070Z,34.90
2018-02-18T08:11:45.330Z,33.90
2018-02-18T08:14:13.598Z,40.20
2018-02-18T08:16:42.625Z,36.53
2018-02-18T08:19:11.116Z,29.97
2018-02-18T08:21:39.374Z,38.40
2018-02-18T08:24:07.691Z,35.73
2018-02-18T08:26:35.959Z,34.20
2018-02-18T08:29:04.256Z,32.10
2018-02-18T08:31:32.517Z,35.70
2018-02-18T08:34:00.774Z,44.60
2018-02-18T08:36:29.037Z,45.80
2018-02-18T08:38:58.302Z,32.63
2018-02-18T08:41:26.566Z,36.07
2018-02-18T08:43:54.839Z,35.70
2018-02-18T08:46:23.097Z,41.67
2018-02-18T08:48:52.121Z,31.37
2018-02-18T08:51:20.488Z,38.20
2018-02-18T08:53:48.766Z,32.50
2018-02-18T08:56:17.791Z,33.97
2018-02-18T08:58:46.062Z,35.70
2018-02-18T09:01:14.310Z,35.87
2018-02-18T09:03:43.351Z,38.87
2018-02-18T09:06:11.612Z,38.00
2018-02-18T09:08:39.892Z,32.00
2018-02-18T09:11:08.919Z,33.80
2018-02-18T09:13:37.194Z,34.80
2018-02-18T09:16:05.446Z,36.37
2018-02-18T09:18:33.747Z,36.97
2018-02-18T09:21:02.021Z,34.60
2018-02-18T09:23:30.292Z,36.60
2018-02-18T09:25:59.306Z,37.20
2018-02-18T09:28:27.578Z,33.70
2018-02-18T09:30:55.831Z,36.13
2018-02-18T09:33:24.104Z,41.73
2018-02-18T09:35:52.362Z,37.80
2018-02-18T09:38:20.637Z,35.90
2018-02-18T09:40:48.912Z,39.83
2018-02-18T09:43:17.157Z,42.60
2018-02-18T09:45:45.591Z,35.37
2018-02-18T09:48:13.852Z,39.13
2018-02-18T09:50:42.107Z,40.83
2018-02-18T09:53:10.382Z,39.50
2018-02-18T09:55:39.411Z,36.73
2018-02-18T09:58:07.672Z,42.47
2018-02-18T10:00:35.938Z,40.80
2018-02-18T10:03:05.056Z,39.67
2018-02-18T10:05:33.354Z,37.90
2018-02-18T10:08:01.625Z,40.27
2018-02-18T10:10:29.898Z,38.77
2018-02-18T10:12:58.160Z,38.50
2018-02-18T10:15:27.211Z,42.17
2018-02-18T10:17:55.484Z,39.00
2018-02-18T10:20:23.771Z,34.87
2018-02-18T10:22:52.161Z,44.63
2018-02-18T10:25:20.493Z,44.43
2018-02-18T10:27:48.718Z,43.43
2018-02-18T10:30:17.001Z,43.60
2018-02-18T10:32:45.247Z,41.10
2018-02-18T10:35:13.526Z,41.00
2018-02-18T10:37:41.806Z,40.00
2018-02-18T10:40:10.834Z,43.00
2018-02-18T10:42:39.094Z,41.10
2018-02-18T10:45:07.366Z,38.83
2018-02-18T10:47:35.645Z,38.70
2018-02-18T10:50:03.962Z,41.60
2018-02-18T10:52:32.221Z,41.23
2018-02-18T10:55:00.528Z,49.57
2018-02-18T10:57:28.778Z,46.33
2018-02-18T10:59:57.050Z,44.27
2018-02-18T11:02:26.086Z,41.07
2018-02-18T11:04:54.367Z,48.23
2018-02-18T11:07:33.622Z,40.97
2018-02-18T11:10:07.454Z,39.47
2018-02-18T11:12:42.469Z,34.83
2018-02-18T11:15:11.083Z,44.47
2018-02-18T11:17:40.228Z,40.70
2018-02-18T11:20:09.007Z,40.20
2018-02-18T11:22:38.284Z,38.77
2018-02-18T11:25:06.904Z,44.67
2018-02-18T11:27:35.228Z,43.33
2018-02-18T11:30:03.499Z,39.27
2018-02-18T11:32:31.783Z,43.57
2018-02-18T11:35:00.055Z,42.27
2018-02-18T11:37:28.306Z,43.03
2018-02-18T11:39:56.586Z,38.97
2018-02-18T11:42:24.856Z,41.17
2018-02-18T11:44:53.879Z,39.73
2018-02-18T11:47:22.142Z,39.03
2018-02-18T11:49:51.176Z,43.63
2018-02-18T11:52:19.482Z,40.03
2018-02-18T11:54:47.699Z,48.63
2018-02-18T11:57:16.717Z,34.90
2018-02-18T11:59:44.990Z,45.43
2018-02-18T12:02:13.246Z,41.13
2018-02-18T12:04:42.292Z,35.67
2018-02-18T12:07:10.551Z,45.73
2018-02-18T12:09:38.826Z,41.53
2018-02-18T12:12:07.103Z,37.00
2018-02-18T12:14:36.167Z,37.20
2018-02-18T12:17:04.434Z,40.63
2018-02-18T12:19:32.713Z,36.97
2018-02-18T12:22:01.004Z,43.20
2018-02-18T12:24:29.273Z,44.67
2018-02-18T12:26:57.526Z,43.03
2018-02-18T12:29:25.804Z,40.27
2018-02-18T12:31:54.927Z,36.03
2018-02-18T12:34:23.190Z,37.10
2018-02-18T12:36:51.454Z,34.23
2018-02-18T12:39:19.755Z,38.40
2018-02-18T12:41:48.016Z,33.77
2018-02-18T12:44:17.066Z,42.40
2018-02-18T12:46:45.331Z,43.33
2018-02-18T12:49:13.602Z,36.03
2018-02-18T12:51:41.867Z,39.87
2018-02-18T12:54:10.143Z,32.77
2018-02-18T12:56:39.162Z,43.03
2018-02-18T12:59:07.437Z,39.60
2018-02-18T13:01:35.694Z,36.70
2018-02-18T13:04:04.747Z,46.70
2018-02-18T13:06:33.022Z,34.57
2018-02-18T13:09:02.251Z,33.57
2018-02-18T13:11:30.535Z,30.83
2018-02-18T13:13:58.819Z,35.43
2018-02-18T13:16:27.096Z,33.67
2018-02-18T13:18:56.862Z,36.67
2018-02-18T13:21:25.148Z,37.00
2018-02-18T13:23:53.402Z,34.40
2018-02-18T13:26:22.440Z,37.30
2018-02-18T13:28:50.697Z,36.63
2018-02-18T13:31:18.977Z,33.17
2018-02-18T13:33:47.415Z,38.07
2018-02-18T13:36:15.952Z,47.20
2018-02-18T13:38:44.199Z,37.53
2018-02-18T13:41:13.240Z,34.80
2018-02-18T13:43:41.499Z,39.03
2018-02-18T13:46:09.778Z,33.23
2018-02-18T13:48:39.935Z,32.33
2018-02-18T13:51:08.222Z,35.93
2018-02-18T13:53:36.483Z,31.93
2018-02-18T13:56:04.770Z,42.30
2018-02-18T13:58:33.062Z,34.90
2018-02-18T14:01:01.334Z,34.33
2018-02-18T14:03:29.595Z,33.10
2018-02-18T14:05:58.637Z,37.30
2018-02-18T14:08:26.890Z,35.40
2018-02-18T14:10:55.159Z,31.60
2018-02-18T14:13:24.200Z,29.63
2018-02-18T14:15:52.472Z,31.87
2018-02-18T14:18:20.725Z,32.27
2018-02-18T14:23:23.573Z,33.03
2018-02-18T14:25:51.855Z,31.53
2018-02-18T14:28:20.223Z,41.27
2018-02-18T14:30:48.537Z,34.90
2018-02-18T14:33:16.796Z,35.80
2018-02-18T14:35:45.070Z,35.40
2018-02-18T14:38:13.323Z,34.80
2018-02-18T14:40:41.601Z,32.80
2018-02-18T14:43:22.572Z,32.03
2018-02-18T14:46:03.594Z,35.30
2018-02-18T14:48:43.869Z,33.17
2018-02-18T14:51:23.939Z,30.30
2018-02-18T14:54:04.151Z,32.60
2018-02-18T14:56:44.375Z,30.70
2018-02-18T14:59:14.153Z,29.00
2018-02-18T15:01:42.427Z,37.63
2018-02-18T15:04:10.756Z,28.57
2018-02-18T15:06:38.994Z,34.40
2018-02-18T15:09:07.254Z,31.07
2018-02-18T15:11:35.729Z,25.83
2018-02-18T15:14:05.035Z,28.10
2018-02-18T15:16:33.336Z,26.63
2018-02-18T15:19:01.657Z,36.13
2018-02-18T15:21:29.909Z,28.50
2018-02-18T15:23:58.168Z,33.17
2018-02-18T15:26:26.426Z,29.40
2018-02-18T15:28:55.475Z,31.00
2018-02-18T15:31:23.743Z,29.63
2018-02-18T15:33:51.989Z,28.57
2018-02-18T15:36:21.063Z,28.80
2018-02-18T15:38:49.345Z,29.73
2018-02-18T15:41:17.598Z,28.97
2018-02-18T15:43:45.842Z,33.30
2018-02-18T15:46:14.108Z,31.17
2018-02-18T15:48:43.132Z,29.03
2018-02-18T15:51:11.391Z,31.83
2018-02-18T15:53:40.427Z,28.07
2018-02-18T15:56:09.554Z,33.13
2018-02-18T15:58:37.808Z,27.80
2018-02-18T16:01:06.127Z,32.97
2018-02-18T16:03:34.367Z,32.43
2018-02-18T16:06:02.651Z,32.20
2018-02-18T16:08:30.899Z,33.10
2018-02-18T16:10:59.312Z,31.50
2018-02-18T16:13:27.561Z,37.47
2018-02-18T16:15:56.906Z,35.30
2018-02-18T16:18:25.155Z,35.40
2018-02-18T16:20:53.427Z,32.37
2018-02-18T16:23:23.263Z,28.07
2018-02-18T16:25:51.538Z,42.90
2018-02-18T16:28:19.854Z,47.17
2018-02-18T16:30:48.127Z,50.23
2018-02-18T16:33:16.414Z,48.17
2018-02-18T16:35:44.832Z,58.60
2018-02-18T16:38:13.060Z,49.77
2018-02-18T16:40:41.331Z,36.90
2018-02-18T16:43:10.335Z,42.70
2018-02-18T16:45:38.610Z,48.87
2018-02-18T16:48:06.876Z,37.93
2018-02-18T16:50:35.921Z,43.80
2018-02-18T16:53:04.167Z,42.90
2018-02-18T16:55:32.434Z,43.10
2018-02-18T16:58:01.455Z,41.60
2018-02-18T17:00:29.705Z,36.87
2018-02-18T17:02:58.743Z,45.23
2018-02-18T17:05:26.994Z,38.43
2018-02-18T17:07:55.254Z,38.70
2018-02-18T17:10:24.432Z,40.87
2018-02-18T17:12:52.677Z,37.67
2018-02-18T17:15:20.941Z,36.33
2018-02-18T17:17:49.974Z,37.33
2018-02-18T17:20:18.214Z,43.10
2018-02-18T17:22:47.423Z,37.57
2018-02-18T17:25:15.677Z,36.93
2018-02-18T17:27:44.119Z,40.70
2018-02-18T17:30:12.371Z,36.27
2018-02-18T17:32:40.634Z,41.43
2018-02-18T17:35:09.897Z,38.10
2018-02-18T17:37:38.186Z,37.87
2018-02-18T17:40:06.455Z,37.53
2018-02-18T17:42:34.751Z,32.17
2018-02-18T17:45:03.013Z,38.93
2018-02-18T17:47:31.285Z,32.90
2018-02-18T17:49:59.584Z,30.07
2018-02-18T17:52:27.839Z,34.37
2018-02-18T17:54:56.099Z,33.70
2018-02-18T17:57:25.135Z,30.00
2018-02-18T17:59:53.378Z,31.27
2018-02-18T18:02:22.406Z,29.57
2018-02-18T18:04:50.654Z,33.57
2018-02-18T18:07:19.701Z,33.33
2018-02-18T18:09:47.980Z,31.23
2018-02-18T18:12:16.802Z,30.13
2018-02-18T18:14:46.609Z,32.97
2018-02-18T18:17:14.874Z,29.63
2018-02-18T18:19:43.128Z,31.10
2018-02-18T18:22:11.401Z,34.90
2018-02-18T18:24:39.644Z,34.03
2018-02-18T18:27:07.901Z,31.17
2018-02-18T18:29:36.202Z,39.10
2018-02-18T18:32:04.482Z,32.17
2018-02-18T18:34:32.762Z,32.23
2018-02-18T18:37:01.118Z,31.17
2018-02-18T18:39:29.405Z,30.83
2018-02-18T18:41:57.691Z,37.40
2018-02-18T18:44:25.974Z,32.90
2018-02-18T18:46:54.214Z,39.30
2018-02-18T18:49:22.465Z,36.10
2018-02-18T18:51:50.734Z,31.30
2018-02-18T18:54:18.980Z,30.10
2018-02-18T18:56:47.258Z,36.03
2018-02-18T18:59:15.559Z,33.30
2018-02-18T19:01:43.838Z,36.30
2018-02-18T19:04:12.094Z,34.80
2018-02-18T19:06:40.365Z,29.63
2018-02-18T19:09:08.682Z,32.47
2018-02-18T19:11:36.995Z,35.30
2018-02-18T19:14:05.240Z,29.87
2018-02-18T19:16:33.516Z,31.33
2018-02-18T19:19:01.802Z,34.20
2018-02-18T19:21:30.080Z,34.00
2018-02-18T19:23:58.339Z,31.80
2018-02-18T19:26:26.599Z,31.53
2018-02-18T19:28:55.631Z,31.23
2018-02-18T19:31:25.936Z,29.50
2018-02-18T19:33:54.945Z,28.20
2018-02-18T19:36:23.216Z,32.70
2018-02-18T19:38:51.478Z,32.93
2018-02-18T19:41:20.523Z,27.00
2018-02-18T19:43:48.787Z,33.20
2018-02-18T19:46:17.062Z,28.63
2018-02-18T19:48:46.069Z,30.77
2018-02-18T19:51:14.350Z,29.23
2018-02-18T19:53:42.591Z,35.67
2018-02-18T19:56:10.942Z,37.93
2018-02-18T19:58:39.226Z,31.00
2018-02-18T20:01:07.502Z,36.20
2018-02-18T20:03:37.280Z,35.60
2018-02-18T20:06:06.313Z,34.97
2018-02-18T20:08:34.590Z,34.97
2018-02-18T20:11:02.890Z,33.20
2018-02-18T20:13:31.177Z,34.40
2018-02-18T20:15:59.535Z,42.30
2018-02-18T20:18:27.830Z,32.57
2018-02-18T20:20:56.102Z,33.60
2018-02-18T20:23:24.430Z,35.30
2018-02-18T20:25:52.673Z,32.37
2018-02-18T20:28:20.958Z,35.57
2018-02-18T20:30:49.251Z,39.17
2018-02-18T20:33:17.554Z,33.47
2018-02-18T20:35:45.821Z,39.27
2018-02-18T20:38:14.108Z,35.85
2018-02-18T20:40:42.379Z,38.90
2018-02-18T20:43:10.646Z,36.77
2018-02-18T20:45:38.898Z,35.30
2018-02-18T20:48:07.950Z,35.10
2018-02-18T20:50:36.329Z,32.73
2018-02-18T20:53:04.616Z,36.40
2018-02-18T20:55:32.881Z,37.33
2018-02-18T20:58:01.164Z,35.97
2018-02-18T21:00:29.415Z,32.80
2018-02-18T21:02:58.538Z,38.37
2018-02-18T21:05:26.786Z,36.33
2018-02-18T21:07:55.826Z,38.60
2018-02-18T21:10:24.660Z,41.67
2018-02-18T21:12:53.115Z,37.33
2018-02-18T21:15:21.365Z,37.97
2018-02-18T21:17:49.640Z,35.83
2018-02-18T21:20:18.694Z,36.23
2018-02-18T21:22:47.072Z,42.07
2018-02-18T21:25:15.351Z,38.13
2018-02-18T21:27:44.538Z,32.50
2018-02-18T21:30:12.791Z,37.70
2018-02-18T21:32:41.069Z,37.07
2018-02-18T21:35:09.323Z,40.13
2018-02-18T21:37:37.763Z,38.03
2018-02-18T21:40:06.795Z,40.13
2018-02-18T21:42:35.097Z,33.90
2018-02-18T21:45:03.382Z,36.63
2018-02-18T21:47:32.415Z,34.20
2018-02-18T21:50:00.810Z,38.87
2018-02-18T21:52:29.101Z,37.60
2018-02-18T21:54:57.340Z,41.63
2018-02-18T21:57:25.623Z,39.90
2018-02-18T21:59:53.895Z,37.47
2018-02-18T22:02:22.939Z,44.27
2018-02-18T22:04:51.201Z,36.27
2018-02-18T22:07:19.532Z,41.33
2018-02-18T22:09:47.776Z,37.67
2018-02-18T22:12:16.055Z,36.27
2018-02-18T22:14:44.306Z,36.53
2018-02-18T22:17:12.618Z,39.20
2018-02-18T22:19:40.897Z,38.87
2018-02-18T22:22:09.232Z,41.00
2018-02-18T22:24:37.498Z,40.40
2018-02-18T22:27:05.761Z,43.47
2018-02-18T22:29:34.024Z,37.57
2018-02-18T22:32:02.288Z,44.23
2018-02-18T22:34:30.546Z,45.60
2018-02-18T22:36:59.586Z,39.87
2018-02-18T22:39:27.859Z,39.03
2018-02-18T22:41:56.138Z,36.83
2018-02-18T22:44:24.395Z,35.30
2018-02-18T22:46:52.667Z,44.80
2018-02-18T22:49:20.986Z,40.63
2018-02-18T22:51:49.246Z,42.73
2018-02-18T22:54:17.547Z,45.00
2018-02-18T22:56:45.794Z,40.27
2018-02-18T22:59:15.132Z,40.83
2018-02-18T23:01:43.386Z,37.17
2018-02-18T23:04:11.675Z,43.35
2018-02-18T23:06:39.930Z,42.10
2018-02-18T23:09:10.003Z,41.07
2018-02-18T23:11:39.603Z,39.63
2018-02-18T23:14:07.874Z,38.40
2018-02-18T23:16:36.125Z,43.37
2018-02-18T23:19:05.273Z,42.80
2018-02-18T23:21:33.518Z,45.73
2018-02-18T23:24:01.810Z,41.93
2018-02-18T23:26:30.050Z,44.60
2018-02-18T23:28:58.315Z,40.67
2018-02-18T23:31:26.577Z,34.87
2018-02-18T23:33:54.958Z,40.50
2018-02-18T23:36:23.342Z,43.87
2018-02-18T23:38:51.622Z,43.33
2018-02-18T23:41:19.879Z,42.20
2018-02-18T23:43:48.133Z,44.83
2018-02-18T23:46:16.548Z,35.23
2018-02-18T23:48:44.949Z,39.07
2018-02-18T23:51:13.199Z,42.70
2018-02-18T23:53:41.514Z,50.10
2018-02-18T23:56:12.471Z,37.37
2018-02-18T23:58:40.958Z,37.60
